sensor_id;sensor_type;location;lat;lon;timestamp;temperature;humidity
44886;DHT22;36669;51.428;21.162;2023-02-01T00:01:49;2.40;99.90
44886;DHT22;36669;51.428;21.162;2023-02-01T00:04:15;2.50;99.90
44886;DHT22;36669;51.428;21.162;2023-02-01T00:06:41;2.40;99.90
44886;DHT22;36669;51.428;21.162;2023-02-01T00:09:06;2.20;99.90
44886;DHT22;36669;51.428;21.162;2023-02-01T00:11:33;2.20;99.90
44886;DHT22;36669;51.428;21.162;2023-02-01T00:13:58;2.00;99.90
44886;DHT22;36669;51.428;21.162;2023-02-01T00:16:28;2.00;99.90
44886;DHT22;36669;51.428;21.162;2023-02-01T00:19:01;2.00;99.90
44886;DHT22;36669;51.428;21.162;2023-02-01T00:21:27;1.90;99.90
44886;DHT22;36669;51.428;21.162;2023-02-01T00:23:53;1.90;99.90
44886;DHT22;36669;51.428;21.162;2023-02-01T00:26:32;1.90;99.90
44886;DHT22;36669;51.428;21.162;2023-02-01T00:28:58;1.90;99.90
44886;DHT22;36669;51.428;21.162;2023-02-01T00:31:24;1.90;99.90
44886;DHT22;36669;51.428;21.162;2023-02-01T00:33:49;1.90;99.90
44886;DHT22;36669;51.428;21.162;2023-02-01T00:36:16;1.90;99.90
44886;DHT22;36669;51.428;21.162;2023-02-01T00:38:42;2.10;99.90
44886;DHT22;36669;51.428;21.162;2023-02-01T00:41:11;2.20;99.90
44886;DHT22;36669;51.428;21.162;2023-02-01T00:43:38;2.30;99.90
44886;DHT22;36669;51.428;21.162;2023-02-01T00:46:04;2.40;99.90
44886;DHT22;36669;51.428;21.162;2023-02-01T00:48:30;2.50;99.90
44886;DHT22;36669;51.428;21.162;2023-02-01T00:51:03;2.50;99.90
44886;DHT22;36669;51.428;21.162;2023-02-01T00:53:30;2.50;99.90
44886;DHT22;36669;51.428;21.162;2023-02-01T00:55:55;2.60;99.90
44886;DHT22;36669;51.428;21.162;2023-02-01T00:58:21;2.60;99.90
44886;DHT22;36669;51.428;21.162;2023-02-01T01:00:49;2.60;99.90
44886;DHT22;36669;51.428;21.162;2023-02-01T01:03:15;2.70;99.90
44886;DHT22;36669;51.428;21.162;2023-02-01T01:05:45;2.70;99.90
44886;DHT22;36669;51.428;21.162;2023-02-01T01:08:11;2.60;99.90
44886;DHT22;36669;51.428;21.162;2023-02-01T01:10:36;2.70;99.90
44886;DHT22;36669;51.428;21.162;2023-02-01T01:13:02;2.70;99.90
44886;DHT22;36669;51.428;21.162;2023-02-01T01:15:28;2.70;99.90
44886;DHT22;36669;51.428;21.162;2023-02-01T01:17:53;2.70;99.90
44886;DHT22;36669;51.428;21.162;2023-02-01T01:20:19;2.80;99.90
44886;DHT22;36669;51.428;21.162;2023-02-01T01:22:47;2.80;99.90
44886;DHT22;36669;51.428;21.162;2023-02-01T01:25:13;2.80;99.90
44886;DHT22;36669;51.428;21.162;2023-02-01T01:27:39;2.80;99.90
44886;DHT22;36669;51.428;21.162;2023-02-01T01:30:06;2.90;99.90
44886;DHT22;36669;51.428;21.162;2023-02-01T01:32:32;2.90;99.90
44886;DHT22;36669;51.428;21.162;2023-02-01T01:34:58;2.90;99.90
44886;DHT22;36669;51.428;21.162;2023-02-01T01:37:24;3.00;99.90
44886;DHT22;36669;51.428;21.162;2023-02-01T01:39:49;3.00;99.90
44886;DHT22;36669;51.428;21.162;2023-02-01T01:42:15;3.00;99.90
44886;DHT22;36669;51.428;21.162;2023-02-01T01:47:49;3.10;99.90
44886;DHT22;36669;51.428;21.162;2023-02-01T01:50:18;3.10;99.90
44886;DHT22;36669;51.428;21.162;2023-02-01T01:52:46;3.10;99.90
44886;DHT22;36669;51.428;21.162;2023-02-01T01:55:14;3.10;99.90
44886;DHT22;36669;51.428;21.162;2023-02-01T01:57:44;3.10;99.90
44886;DHT22;36669;51.428;21.162;2023-02-01T02:00:15;3.10;99.90
44886;DHT22;36669;51.428;21.162;2023-02-01T02:02:43;3.10;99.90
44886;DHT22;36669;51.428;21.162;2023-02-01T02:05:10;3.10;99.90
44886;DHT22;36669;51.428;21.162;2023-02-01T02:07:40;3.00;99.90
44886;DHT22;36669;51.428;21.162;2023-02-01T02:10:10;3.10;99.90
44886;DHT22;36669;51.428;21.162;2023-02-01T02:12:41;3.10;99.90
44886;DHT22;36669;51.428;21.162;2023-02-01T02:15:12;3.10;99.90
44886;DHT22;36669;51.428;21.162;2023-02-01T02:34:12;2.90;99.90
44886;DHT22;36669;51.428;21.162;2023-02-01T02:39:36;2.90;99.90
44886;DHT22;36669;51.428;21.162;2023-02-01T02:42:14;2.90;99.90
44886;DHT22;36669;51.428;21.162;2023-02-01T02:50:38;3.00;99.90
44886;DHT22;36669;51.428;21.162;2023-02-01T02:53:32;3.00;99.90
44886;DHT22;36669;51.428;21.162;2023-02-01T02:56:20;3.10;99.90
44886;DHT22;36669;51.428;21.162;2023-02-01T02:59:06;3.10;99.90
44886;DHT22;36669;51.428;21.162;2023-02-01T03:01:51;3.10;99.90
44886;DHT22;36669;51.428;21.162;2023-02-01T03:04:36;3.00;99.90
44886;DHT22;36669;51.428;21.162;2023-02-01T03:12:52;3.00;99.90
44886;DHT22;36669;51.428;21.162;2023-02-01T03:15:41;3.00;99.90
44886;DHT22;36669;51.428;21.162;2023-02-01T03:18:17;2.90;99.90
44886;DHT22;36669;51.428;21.162;2023-02-01T03:20:47;2.90;99.90
44886;DHT22;36669;51.428;21.162;2023-02-01T03:23:16;2.90;99.90
44886;DHT22;36669;51.428;21.162;2023-02-01T03:25:42;2.90;99.90
44886;DHT22;36669;51.428;21.162;2023-02-01T03:28:10;2.90;99.90
44886;DHT22;36669;51.428;21.162;2023-02-01T03:30:38;2.90;99.90
44886;DHT22;36669;51.428;21.162;2023-02-01T03:33:09;2.90;99.90
44886;DHT22;36669;51.428;21.162;2023-02-01T03:46:22;2.90;99.90
44886;DHT22;36669;51.428;21.162;2023-02-01T03:48:51;2.90;99.90
44886;DHT22;36669;51.428;21.162;2023-02-01T03:51:19;2.90;99.90
44886;DHT22;36669;51.428;21.162;2023-02-01T03:53:47;2.90;99.90
44886;DHT22;36669;51.428;21.162;2023-02-01T03:56:15;2.90;99.90
44886;DHT22;36669;51.428;21.162;2023-02-01T03:58:41;2.90;99.90
44886;DHT22;36669;51.428;21.162;2023-02-01T04:01:06;2.90;99.90
44886;DHT22;36669;51.428;21.162;2023-02-01T04:03:32;2.90;99.90
44886;DHT22;36669;51.428;21.162;2023-02-01T04:05:58;2.90;99.90
44886;DHT22;36669;51.428;21.162;2023-02-01T04:08:23;3.00;99.90
44886;DHT22;36669;51.428;21.162;2023-02-01T04:10:49;3.00;99.90
44886;DHT22;36669;51.428;21.162;2023-02-01T04:13:15;3.00;99.90
44886;DHT22;36669;51.428;21.162;2023-02-01T04:15:40;2.90;99.90
44886;DHT22;36669;51.428;21.162;2023-02-01T04:18:06;2.90;99.90
44886;DHT22;36669;51.428;21.162;2023-02-01T04:20:32;3.00;99.90
44886;DHT22;36669;51.428;21.162;2023-02-01T04:22:57;3.00;99.90
44886;DHT22;36669;51.428;21.162;2023-02-01T04:25:23;3.00;99.90
44886;DHT22;36669;51.428;21.162;2023-02-01T04:27:49;3.00;99.90
44886;DHT22;36669;51.428;21.162;2023-02-01T04:30:15;3.00;99.90
44886;DHT22;36669;51.428;21.162;2023-02-01T04:32:41;3.00;99.90
44886;DHT22;36669;51.428;21.162;2023-02-01T04:35:07;3.00;99.90
44886;DHT22;36669;51.428;21.162;2023-02-01T04:37:33;3.10;99.90
44886;DHT22;36669;51.428;21.162;2023-02-01T04:39:59;3.10;99.90
44886;DHT22;36669;51.428;21.162;2023-02-01T04:42:25;3.10;99.90
44886;DHT22;36669;51.428;21.162;2023-02-01T04:44:50;3.10;99.90
44886;DHT22;36669;51.428;21.162;2023-02-01T04:47:16;3.10;99.90
44886;DHT22;36669;51.428;21.162;2023-02-01T04:49:42;3.00;99.90
44886;DHT22;36669;51.428;21.162;2023-02-01T04:52:08;3.00;99.90
44886;DHT22;36669;51.428;21.162;2023-02-01T04:54:33;3.00;99.90
44886;DHT22;36669;51.428;21.162;2023-02-01T04:56:59;3.00;99.90
44886;DHT22;36669;51.428;21.162;2023-02-01T04:59:26;3.00;99.90
44886;DHT22;36669;51.428;21.162;2023-02-01T05:01:52;2.90;99.90
44886;DHT22;36669;51.428;21.162;2023-02-01T05:04:17;2.90;99.90
44886;DHT22;36669;51.428;21.162;2023-02-01T05:06:44;3.00;99.90
44886;DHT22;36669;51.428;21.162;2023-02-01T05:09:10;3.00;99.90
44886;DHT22;36669;51.428;21.162;2023-02-01T05:11:35;3.00;99.90
44886;DHT22;36669;51.428;21.162;2023-02-01T05:14:20;3.00;99.90
44886;DHT22;36669;51.428;21.162;2023-02-01T05:16:46;3.00;99.90
44886;DHT22;36669;51.428;21.162;2023-02-01T05:19:11;3.00;99.90
44886;DHT22;36669;51.428;21.162;2023-02-01T05:21:37;3.00;99.90
44886;DHT22;36669;51.428;21.162;2023-02-01T05:24:03;3.00;99.90
44886;DHT22;36669;51.428;21.162;2023-02-01T05:26:36;3.00;99.90
44886;DHT22;36669;51.428;21.162;2023-02-01T05:29:02;2.90;99.90
44886;DHT22;36669;51.428;21.162;2023-02-01T05:31:27;2.80;99.90
44886;DHT22;36669;51.428;21.162;2023-02-01T05:33:54;2.80;99.90
44886;DHT22;36669;51.428;21.162;2023-02-01T05:36:19;2.70;99.90
44886;DHT22;36669;51.428;21.162;2023-02-01T05:38:45;2.70;99.90
44886;DHT22;36669;51.428;21.162;2023-02-01T05:41:11;2.70;99.90
44886;DHT22;36669;51.428;21.162;2023-02-01T05:43:36;2.80;99.90
44886;DHT22;36669;51.428;21.162;2023-02-01T05:46:02;2.80;99.90
44886;DHT22;36669;51.428;21.162;2023-02-01T05:48:27;2.80;99.90
44886;DHT22;36669;51.428;21.162;2023-02-01T05:50:53;2.80;99.90
44886;DHT22;36669;51.428;21.162;2023-02-01T05:53:19;2.80;99.90
44886;DHT22;36669;51.428;21.162;2023-02-01T05:55:44;2.80;99.90
44886;DHT22;36669;51.428;21.162;2023-02-01T05:58:10;2.80;99.90
44886;DHT22;36669;51.428;21.162;2023-02-01T06:00:37;2.80;99.90
44886;DHT22;36669;51.428;21.162;2023-02-01T06:03:03;2.80;99.90
44886;DHT22;36669;51.428;21.162;2023-02-01T06:05:28;2.80;99.90
44886;DHT22;36669;51.428;21.162;2023-02-01T06:07:54;2.90;99.90
44886;DHT22;36669;51.428;21.162;2023-02-01T06:10:20;2.90;99.90
44886;DHT22;36669;51.428;21.162;2023-02-01T06:12:45;2.80;99.90
44886;DHT22;36669;51.428;21.162;2023-02-01T06:15:12;2.80;99.90
44886;DHT22;36669;51.428;21.162;2023-02-01T06:17:38;2.80;99.90
44886;DHT22;36669;51.428;21.162;2023-02-01T06:20:07;2.80;99.90
44886;DHT22;36669;51.428;21.162;2023-02-01T06:22:33;2.80;99.90
44886;DHT22;36669;51.428;21.162;2023-02-01T06:24:58;2.70;99.90
44886;DHT22;36669;51.428;21.162;2023-02-01T06:27:25;2.70;99.90
44886;DHT22;36669;51.428;21.162;2023-02-01T06:29:50;2.80;99.90
44886;DHT22;36669;51.428;21.162;2023-02-01T06:32:16;2.80;99.90
44886;DHT22;36669;51.428;21.162;2023-02-01T06:34:43;2.80;99.90
44886;DHT22;36669;51.428;21.162;2023-02-01T06:37:09;2.80;99.90
44886;DHT22;36669;51.428;21.162;2023-02-01T06:39:36;2.80;99.90
44886;DHT22;36669;51.428;21.162;2023-02-01T06:42:02;2.80;99.90
44886;DHT22;36669;51.428;21.162;2023-02-01T06:44:28;2.80;99.90
44886;DHT22;36669;51.428;21.162;2023-02-01T06:46:54;2.80;99.90
44886;DHT22;36669;51.428;21.162;2023-02-01T06:49:20;2.90;99.90
44886;DHT22;36669;51.428;21.162;2023-02-01T06:51:46;2.90;99.90
44886;DHT22;36669;51.428;21.162;2023-02-01T06:54:11;2.90;99.90
44886;DHT22;36669;51.428;21.162;2023-02-01T06:56:37;2.90;99.90
44886;DHT22;36669;51.428;21.162;2023-02-01T06:59:04;3.00;99.90
44886;DHT22;36669;51.428;21.162;2023-02-01T07:01:30;3.00;99.90
44886;DHT22;36669;51.428;21.162;2023-02-01T07:03:57;3.00;99.90
44886;DHT22;36669;51.428;21.162;2023-02-01T07:06:22;3.00;99.90
44886;DHT22;36669;51.428;21.162;2023-02-01T07:08:49;3.10;99.90
44886;DHT22;36669;51.428;21.162;2023-02-01T07:11:16;3.10;99.90
44886;DHT22;36669;51.428;21.162;2023-02-01T07:13:42;3.10;99.90
44886;DHT22;36669;51.428;21.162;2023-02-01T07:16:11;3.10;99.90
44886;DHT22;36669;51.428;21.162;2023-02-01T07:18:37;3.20;99.90
44886;DHT22;36669;51.428;21.162;2023-02-01T07:21:03;3.20;99.90
44886;DHT22;36669;51.428;21.162;2023-02-01T07:23:29;3.20;99.90
44886;DHT22;36669;51.428;21.162;2023-02-01T07:25:56;3.30;99.90
44886;DHT22;36669;51.428;21.162;2023-02-01T07:28:22;3.40;99.90
44886;DHT22;36669;51.428;21.162;2023-02-01T07:30:48;3.40;99.90
44886;DHT22;36669;51.428;21.162;2023-02-01T07:33:18;3.50;99.90
44886;DHT22;36669;51.428;21.162;2023-02-01T07:35:44;3.60;99.90
44886;DHT22;36669;51.428;21.162;2023-02-01T07:38:10;3.50;99.90
44886;DHT22;36669;51.428;21.162;2023-02-01T07:40:35;3.50;99.90
44886;DHT22;36669;51.428;21.162;2023-02-01T07:43:01;3.50;99.90
44886;DHT22;36669;51.428;21.162;2023-02-01T07:45:26;3.50;99.90
44886;DHT22;36669;51.428;21.162;2023-02-01T07:47:52;3.50;99.90
44886;DHT22;36669;51.428;21.162;2023-02-01T07:50:19;3.50;99.90
44886;DHT22;36669;51.428;21.162;2023-02-01T07:52:44;3.50;99.90
44886;DHT22;36669;51.428;21.162;2023-02-01T07:55:10;3.60;99.90
44886;DHT22;36669;51.428;21.162;2023-02-01T07:57:36;3.50;99.90
44886;DHT22;36669;51.428;21.162;2023-02-01T08:00:02;3.60;99.90
44886;DHT22;36669;51.428;21.162;2023-02-01T08:02:46;3.60;99.90
44886;DHT22;36669;51.428;21.162;2023-02-01T08:05:12;3.60;99.90
44886;DHT22;36669;51.428;21.162;2023-02-01T08:07:37;3.60;99.90
44886;DHT22;36669;51.428;21.162;2023-02-01T08:10:03;3.60;99.90
44886;DHT22;36669;51.428;21.162;2023-02-01T08:12:31;3.60;99.90
44886;DHT22;36669;51.428;21.162;2023-02-01T08:14:56;3.70;99.90
44886;DHT22;36669;51.428;21.162;2023-02-01T08:17:22;3.70;99.90
44886;DHT22;36669;51.428;21.162;2023-02-01T08:19:47;3.70;99.90
44886;DHT22;36669;51.428;21.162;2023-02-01T08:22:13;3.70;99.90
44886;DHT22;36669;51.428;21.162;2023-02-01T08:24:39;3.70;99.90
44886;DHT22;36669;51.428;21.162;2023-02-01T08:27:05;3.70;99.90
44886;DHT22;36669;51.428;21.162;2023-02-01T08:29:31;3.80;99.90
44886;DHT22;36669;51.428;21.162;2023-02-01T08:31:57;3.70;99.90
44886;DHT22;36669;51.428;21.162;2023-02-01T08:34:22;3.80;99.90
44886;DHT22;36669;51.428;21.162;2023-02-01T08:36:48;3.70;99.90
44886;DHT22;36669;51.428;21.162;2023-02-01T08:39:14;3.70;99.90
44886;DHT22;36669;51.428;21.162;2023-02-01T08:41:40;3.80;99.90
44886;DHT22;36669;51.428;21.162;2023-02-01T08:44:07;3.70;99.90
44886;DHT22;36669;51.428;21.162;2023-02-01T08:46:33;3.80;99.90
44886;DHT22;36669;51.428;21.162;2023-02-01T08:48:59;3.70;99.90
44886;DHT22;36669;51.428;21.162;2023-02-01T08:51:25;3.60;99.90
44886;DHT22;36669;51.428;21.162;2023-02-01T08:53:51;3.50;99.90
44886;DHT22;36669;51.428;21.162;2023-02-01T08:56:18;3.60;99.90
44886;DHT22;36669;51.428;21.162;2023-02-01T08:58:44;3.50;99.90
44886;DHT22;36669;51.428;21.162;2023-02-01T09:01:13;3.50;99.90
44886;DHT22;36669;51.428;21.162;2023-02-01T09:03:39;3.50;99.90
44886;DHT22;36669;51.428;21.162;2023-02-01T09:06:07;3.60;99.90
44886;DHT22;36669;51.428;21.162;2023-02-01T09:08:33;3.60;99.90
44886;DHT22;36669;51.428;21.162;2023-02-01T09:11:07;3.60;99.90
44886;DHT22;36669;51.428;21.162;2023-02-01T09:13:33;3.60;99.90
44886;DHT22;36669;51.428;21.162;2023-02-01T09:16:02;3.60;99.90
44886;DHT22;36669;51.428;21.162;2023-02-01T09:18:28;3.70;99.90
44886;DHT22;36669;51.428;21.162;2023-02-01T09:20:53;3.70;99.90
44886;DHT22;36669;51.428;21.162;2023-02-01T09:23:19;3.70;99.90
44886;DHT22;36669;51.428;21.162;2023-02-01T09:25:47;3.80;99.90
44886;DHT22;36669;51.428;21.162;2023-02-01T09:28:16;3.70;99.90
44886;DHT22;36669;51.428;21.162;2023-02-01T09:30:41;3.70;99.90
44886;DHT22;36669;51.428;21.162;2023-02-01T09:33:07;3.70;99.90
44886;DHT22;36669;51.428;21.162;2023-02-01T09:35:33;3.70;99.90
44886;DHT22;36669;51.428;21.162;2023-02-01T09:37:58;3.60;99.90
44886;DHT22;36669;51.428;21.162;2023-02-01T09:40:24;3.60;99.90
44886;DHT22;36669;51.428;21.162;2023-02-01T09:48:00;3.60;99.90
44886;DHT22;36669;51.428;21.162;2023-02-01T09:50:38;3.60;99.90
44886;DHT22;36669;51.428;21.162;2023-02-01T09:55:53;3.60;99.90
44886;DHT22;36669;51.428;21.162;2023-02-01T09:58:25;3.50;99.90
44886;DHT22;36669;51.428;21.162;2023-02-01T10:00:57;3.60;99.90
44886;DHT22;36669;51.428;21.162;2023-02-01T10:03:26;3.60;99.90
44886;DHT22;36669;51.428;21.162;2023-02-01T10:14:13;4.00;99.90
44886;DHT22;36669;51.428;21.162;2023-02-01T10:19:48;4.00;99.90
44886;DHT22;36669;51.428;21.162;2023-02-01T10:27:42;4.00;99.90
44886;DHT22;36669;51.428;21.162;2023-02-01T10:30:23;4.00;99.90
44886;DHT22;36669;51.428;21.162;2023-02-01T10:32:54;4.00;99.90
44886;DHT22;36669;51.428;21.162;2023-02-01T10:35:30;3.90;99.90
44886;DHT22;36669;51.428;21.162;2023-02-01T10:38:05;4.00;99.90
44886;DHT22;36669;51.428;21.162;2023-02-01T10:40:37;4.00;99.90
44886;DHT22;36669;51.428;21.162;2023-02-01T10:43:03;4.10;99.90
44886;DHT22;36669;51.428;21.162;2023-02-01T10:45:30;4.10;99.90
44886;DHT22;36669;51.428;21.162;2023-02-01T10:47:59;4.20;99.90
44886;DHT22;36669;51.428;21.162;2023-02-01T10:50:49;4.20;99.90
44886;DHT22;36669;51.428;21.162;2023-02-01T10:53:33;4.10;99.90
44886;DHT22;36669;51.428;21.162;2023-02-01T10:56:09;4.20;99.90
44886;DHT22;36669;51.428;21.162;2023-02-01T10:58:44;4.10;99.90
44886;DHT22;36669;51.428;21.162;2023-02-01T11:01:17;4.00;99.90
44886;DHT22;36669;51.428;21.162;2023-02-01T11:03:45;4.00;99.90
44886;DHT22;36669;51.428;21.162;2023-02-01T11:06:32;4.10;99.90
44886;DHT22;36669;51.428;21.162;2023-02-01T11:09:11;4.10;99.90
44886;DHT22;36669;51.428;21.162;2023-02-01T11:12:01;4.10;99.90
44886;DHT22;36669;51.428;21.162;2023-02-01T11:14:37;4.20;99.90
44886;DHT22;36669;51.428;21.162;2023-02-01T11:17:24;4.30;99.90
44886;DHT22;36669;51.428;21.162;2023-02-01T11:19:59;4.40;99.90
44886;DHT22;36669;51.428;21.162;2023-02-01T11:22:27;4.50;99.90
44886;DHT22;36669;51.428;21.162;2023-02-01T11:24:54;4.50;99.90
44886;DHT22;36669;51.428;21.162;2023-02-01T11:27:21;4.50;99.90
44886;DHT22;36669;51.428;21.162;2023-02-01T11:29:52;4.50;99.90
44886;DHT22;36669;51.428;21.162;2023-02-01T11:32:20;4.50;99.90
44886;DHT22;36669;51.428;21.162;2023-02-01T11:35:02;4.30;99.90
44886;DHT22;36669;51.428;21.162;2023-02-01T11:37:41;4.00;99.90
44886;DHT22;36669;51.428;21.162;2023-02-01T11:42:54;3.80;99.90
44886;DHT22;36669;51.428;21.162;2023-02-01T11:45:26;3.70;99.90
44886;DHT22;36669;51.428;21.162;2023-02-01T11:47:52;3.70;99.90
44886;DHT22;36669;51.428;21.162;2023-02-01T11:50:44;3.70;99.90
44886;DHT22;36669;51.428;21.162;2023-02-01T12:05:00;3.80;99.90
44886;DHT22;36669;51.428;21.162;2023-02-01T12:07:20;3.80;99.90
44886;DHT22;36669;51.428;21.162;2023-02-01T12:15:31;4.00;99.90
44886;DHT22;36669;51.428;21.162;2023-02-01T12:23:54;4.00;99.90
44886;DHT22;36669;51.428;21.162;2023-02-01T12:26:42;4.00;99.90
44886;DHT22;36669;51.428;21.162;2023-02-01T12:43:19;4.30;99.90
44886;DHT22;36669;51.428;21.162;2023-02-01T12:45:58;4.30;99.90
44886;DHT22;36669;51.428;21.162;2023-02-01T12:48:37;4.50;99.90
44886;DHT22;36669;51.428;21.162;2023-02-01T12:51:13;4.50;99.90
44886;DHT22;36669;51.428;21.162;2023-02-01T12:56:36;4.60;99.90
44886;DHT22;36669;51.428;21.162;2023-02-01T12:59:05;4.60;99.90
44886;DHT22;36669;51.428;21.162;2023-02-01T13:09:27;4.70;99.90
44886;DHT22;36669;51.428;21.162;2023-02-01T13:11:58;4.90;99.90
44886;DHT22;36669;51.428;21.162;2023-02-01T13:14:48;4.90;99.90
44886;DHT22;36669;51.428;21.162;2023-02-01T13:17:29;4.90;99.90
44886;DHT22;36669;51.428;21.162;2023-02-01T13:20:03;4.90;99.90
44886;DHT22;36669;51.428;21.162;2023-02-01T13:22:43;4.80;99.90
44886;DHT22;36669;51.428;21.162;2023-02-01T13:27:46;4.80;99.90
44886;DHT22;36669;51.428;21.162;2023-02-01T13:30:20;4.80;99.90
44886;DHT22;36669;51.428;21.162;2023-02-01T13:38:53;5.00;99.90
44886;DHT22;36669;51.428;21.162;2023-02-01T13:41:28;5.00;99.90
44886;DHT22;36669;51.428;21.162;2023-02-01T13:44:10;4.90;99.90
44886;DHT22;36669;51.428;21.162;2023-02-01T13:46:45;4.80;99.90
44886;DHT22;36669;51.428;21.162;2023-02-01T13:49:27;4.80;99.90
44886;DHT22;36669;51.428;21.162;2023-02-01T13:51:56;4.90;99.90
44886;DHT22;36669;51.428;21.162;2023-02-01T13:54:32;4.80;99.90
44886;DHT22;36669;51.428;21.162;2023-02-01T13:57:00;4.80;99.90
44886;DHT22;36669;51.428;21.162;2023-02-01T14:05:04;4.80;99.90
44886;DHT22;36669;51.428;21.162;2023-02-01T14:07:30;4.80;99.90
44886;DHT22;36669;51.428;21.162;2023-02-01T14:09:56;4.80;99.90
44886;DHT22;36669;51.428;21.162;2023-02-01T14:15:26;4.70;99.90
44886;DHT22;36669;51.428;21.162;2023-02-01T14:17:53;4.60;99.90
44886;DHT22;36669;51.428;21.162;2023-02-01T14:20:43;4.50;99.90
44886;DHT22;36669;51.428;21.162;2023-02-01T14:23:19;4.40;99.90
44886;DHT22;36669;51.428;21.162;2023-02-01T14:25:48;4.30;99.90
44886;DHT22;36669;51.428;21.162;2023-02-01T14:28:27;4.20;99.90
44886;DHT22;36669;51.428;21.162;2023-02-01T14:30:54;4.20;99.90
44886;DHT22;36669;51.428;21.162;2023-02-01T14:33:23;4.20;99.90
44886;DHT22;36669;51.428;21.162;2023-02-01T14:36:05;4.20;99.90
44886;DHT22;36669;51.428;21.162;2023-02-01T14:38:33;4.10;99.90
44886;DHT22;36669;51.428;21.162;2023-02-01T14:41:23;4.00;99.90
44886;DHT22;36669;51.428;21.162;2023-02-01T14:49:34;3.90;99.90
44886;DHT22;36669;51.428;21.162;2023-02-01T14:52:06;3.80;99.90
44886;DHT22;36669;51.428;21.162;2023-02-01T14:54:35;3.80;99.90
44886;DHT22;36669;51.428;21.162;2023-02-01T14:57:02;3.80;99.90
44886;DHT22;36669;51.428;21.162;2023-02-01T14:59:30;3.70;99.90
44886;DHT22;36669;51.428;21.162;2023-02-01T15:01:59;3.70;99.90
44886;DHT22;36669;51.428;21.162;2023-02-01T15:04:27;3.70;99.90
44886;DHT22;36669;51.428;21.162;2023-02-01T15:07:06;3.80;99.90
44886;DHT22;36669;51.428;21.162;2023-02-01T15:09:44;3.70;99.90
44886;DHT22;36669;51.428;21.162;2023-02-01T15:12:17;3.70;99.90
44886;DHT22;36669;51.428;21.162;2023-02-01T15:15:03;3.70;99.90
44886;DHT22;36669;51.428;21.162;2023-02-01T15:17:34;3.80;99.90
44886;DHT22;36669;51.428;21.162;2023-02-01T15:20:02;3.70;99.90
44886;DHT22;36669;51.428;21.162;2023-02-01T15:22:30;3.70;99.90
44886;DHT22;36669;51.428;21.162;2023-02-01T15:24:58;3.70;99.90
44886;DHT22;36669;51.428;21.162;2023-02-01T15:27:24;3.70;99.90
44886;DHT22;36669;51.428;21.162;2023-02-01T15:29:50;3.70;99.90
44886;DHT22;36669;51.428;21.162;2023-02-01T15:32:38;3.60;99.90
44886;DHT22;36669;51.428;21.162;2023-02-01T15:35:36;3.60;99.90
44886;DHT22;36669;51.428;21.162;2023-02-01T15:38:39;3.60;99.90
44886;DHT22;36669;51.428;21.162;2023-02-01T15:41:20;3.50;99.90
44886;DHT22;36669;51.428;21.162;2023-02-01T15:44:11;3.40;99.90
44886;DHT22;36669;51.428;21.162;2023-02-01T15:46:43;3.30;99.90
44886;DHT22;36669;51.428;21.162;2023-02-01T15:51:50;3.20;99.90
44886;DHT22;36669;51.428;21.162;2023-02-01T15:54:45;3.20;99.90
44886;DHT22;36669;51.428;21.162;2023-02-01T15:57:07;3.10;99.90
44886;DHT22;36669;51.428;21.162;2023-02-01T15:59:42;3.10;99.90
44886;DHT22;36669;51.428;21.162;2023-02-01T16:02:25;3.00;99.90
44886;DHT22;36669;51.428;21.162;2023-02-01T16:04:51;3.00;99.90
44886;DHT22;36669;51.428;21.162;2023-02-01T16:07:31;3.00;99.90
44886;DHT22;36669;51.428;21.162;2023-02-01T16:10:02;2.90;99.90
44886;DHT22;36669;51.428;21.162;2023-02-01T16:12:46;2.90;99.90
44886;DHT22;36669;51.428;21.162;2023-02-01T16:15:12;2.90;99.90
44886;DHT22;36669;51.428;21.162;2023-02-01T16:17:38;2.90;99.90
44886;DHT22;36669;51.428;21.162;2023-02-01T16:20:04;2.90;99.90
44886;DHT22;36669;51.428;21.162;2023-02-01T16:22:30;2.90;99.90
44886;DHT22;36669;51.428;21.162;2023-02-01T16:24:57;2.90;99.90
44886;DHT22;36669;51.428;21.162;2023-02-01T16:27:24;2.90;99.90
44886;DHT22;36669;51.428;21.162;2023-02-01T16:29:51;2.90;99.90
44886;DHT22;36669;51.428;21.162;2023-02-01T16:32:20;2.90;99.90
44886;DHT22;36669;51.428;21.162;2023-02-01T16:34:48;2.90;99.90
44886;DHT22;36669;51.428;21.162;2023-02-01T16:37:25;2.90;99.90
44886;DHT22;36669;51.428;21.162;2023-02-01T16:39:53;2.90;99.90
44886;DHT22;36669;51.428;21.162;2023-02-01T16:42:20;2.90;99.90
44886;DHT22;36669;51.428;21.162;2023-02-01T16:44:47;2.90;99.90
44886;DHT22;36669;51.428;21.162;2023-02-01T16:47:20;3.00;99.90
44886;DHT22;36669;51.428;21.162;2023-02-01T16:49:47;3.00;99.90
44886;DHT22;36669;51.428;21.162;2023-02-01T16:52:18;3.00;99.90
44886;DHT22;36669;51.428;21.162;2023-02-01T16:54:45;3.00;99.90
44886;DHT22;36669;51.428;21.162;2023-02-01T16:57:17;3.00;99.90
44886;DHT22;36669;51.428;21.162;2023-02-01T16:59:43;3.00;99.90
44886;DHT22;36669;51.428;21.162;2023-02-01T17:02:14;3.00;99.90
44886;DHT22;36669;51.428;21.162;2023-02-01T17:04:40;3.00;99.90
44886;DHT22;36669;51.428;21.162;2023-02-01T17:07:07;3.00;99.90
44886;DHT22;36669;51.428;21.162;2023-02-01T17:09:36;3.00;99.90
44886;DHT22;36669;51.428;21.162;2023-02-01T17:12:03;3.00;99.90
44886;DHT22;36669;51.428;21.162;2023-02-01T17:14:34;2.90;99.90
44886;DHT22;36669;51.428;21.162;2023-02-01T17:17:01;3.00;99.90
44886;DHT22;36669;51.428;21.162;2023-02-01T17:19:27;3.00;99.90
44886;DHT22;36669;51.428;21.162;2023-02-01T17:21:54;3.00;99.90
44886;DHT22;36669;51.428;21.162;2023-02-01T17:24:29;3.10;99.90
44886;DHT22;36669;51.428;21.162;2023-02-01T17:26:56;3.10;99.90
44886;DHT22;36669;51.428;21.162;2023-02-01T17:29:21;3.10;99.90
44886;DHT22;36669;51.428;21.162;2023-02-01T17:31:52;3.10;99.90
44886;DHT22;36669;51.428;21.162;2023-02-01T17:34:19;3.10;99.90
44886;DHT22;36669;51.428;21.162;2023-02-01T17:36:46;3.10;99.90
44886;DHT22;36669;51.428;21.162;2023-02-01T17:39:13;3.10;99.90
44886;DHT22;36669;51.428;21.162;2023-02-01T17:41:59;3.10;99.90
44886;DHT22;36669;51.428;21.162;2023-02-01T17:44:25;3.10;99.90
44886;DHT22;36669;51.428;21.162;2023-02-01T17:46:51;3.20;99.90
44886;DHT22;36669;51.428;21.162;2023-02-01T17:49:16;3.10;99.90
44886;DHT22;36669;51.428;21.162;2023-02-01T17:51:42;3.10;99.90
44886;DHT22;36669;51.428;21.162;2023-02-01T17:54:17;3.10;99.90
44886;DHT22;36669;51.428;21.162;2023-02-01T17:56:44;3.00;99.90
44886;DHT22;36669;51.428;21.162;2023-02-01T17:59:11;3.00;99.90
44886;DHT22;36669;51.428;21.162;2023-02-01T18:01:36;3.00;99.90
44886;DHT22;36669;51.428;21.162;2023-02-01T18:04:03;3.00;99.90
44886;DHT22;36669;51.428;21.162;2023-02-01T18:06:32;2.90;99.90
44886;DHT22;36669;51.428;21.162;2023-02-01T18:08:59;2.90;99.90
44886;DHT22;36669;51.428;21.162;2023-02-01T18:11:25;2.80;99.90